Time;durP1;ratioP1;P1;durP2;ratioP2;P2;SDS_P1;SDS_P2;PMS_P1;PMS_P2;Temp;Humidity;BMP_temperature;BMP_pressure;BME280_temperature;BME280_humidity;BME280_pressure;Samples;Min_cycle;Max_cycle;Signal;HPM_P1;HPM_P2
2022/05/01 00:01:45;;;;;;;17.95;16.25;;;11.90;74.60;;;10.34;80.42;96357.41;4835220;28;20712;-62
2022/05/01 00:04:11;;;;;;;18.42;16.67;;;11.80;74.70;;;10.33;80.08;96358.41;4844053;28;20447;-62
2022/05/01 00:06:37;;;;;;;21.02;17.35;;;11.80;74.90;;;10.31;79.63;96365.69;4852867;28;20336;-63
2022/05/01 00:09:03;;;;;;;18.25;16.45;;;11.80;75.10;;;10.29;80.94;96357.16;4842601;28;20320;-63
2022/05/01 00:11:30;;;;;;;18.88;16.98;;;11.80;75.20;;;10.27;80.91;96354.72;4810942;29;20294;-63
2022/05/01 00:13:57;;;;;;;18.67;16.95;;;11.80;75.30;;;10.23;81.54;96350.81;4802176;28;20375;-63
2022/05/01 00:16:23;;;;;;;18.52;16.55;;;11.70;75.30;;;10.20;80.82;96356.41;4832033;28;20325;-63
2022/05/01 00:18:49;;;;;;;19.70;17.75;;;11.70;75.60;;;10.15;80.34;96350.84;4829071;28;20317;-64
2022/05/01 00:21:16;;;;;;;19.00;17.10;;;11.60;76.00;;;10.15;81.43;96356.09;4845293;28;20383;-64
2022/05/01 00:23:43;;;;;;;18.88;16.88;;;11.70;76.00;;;10.13;81.52;96358.91;4831383;28;20357;-63
2022/05/01 00:26:09;;;;;;;19.25;17.25;;;11.60;76.00;;;10.12;81.72;96353.84;4843948;28;20643;-62
2022/05/01 00:28:36;;;;;;;18.52;16.73;;;11.70;76.10;;;10.14;81.92;96359.72;4830953;28;20325;-63
2022/05/01 00:31:05;;;;;;;19.15;17.17;;;11.70;76.10;;;10.13;82.49;96355.47;4852075;28;20691;-63
2022/05/01 00:36:25;;;;;;;19.73;17.73;;;11.70;76.10;;;10.14;82.88;96349.22;4853862;28;20546;-63
2022/05/01 00:39:02;;;;;;;20.10;18.10;;;11.70;76.10;;;10.14;82.98;96354.47;4844898;28;20358;-62
2022/05/01 00:41:29;;;;;;;19.13;17.23;;;11.70;76.00;;;10.15;82.19;96356.09;4858289;28;20285;-63
2022/05/01 00:44:15;;;;;;;19.10;17.13;;;11.70;76.00;;;10.16;83.22;96357.72;4856081;28;20367;-63
2022/05/01 00:46:44;;;;;;;18.95;16.52;;;11.70;75.80;;;10.15;82.80;96345.59;4832041;28;20354;-64
2022/05/01 00:49:13;;;;;;;19.05;17.05;;;11.80;76.10;;;10.14;82.52;96354.47;4826242;28;20599;-63
2022/05/01 00:52:08;;;;;;;19.30;17.23;;;11.70;76.00;;;10.14;83.33;96354.47;4818479;28;20494;-63
2022/05/01 00:54:34;;;;;;;18.42;16.73;;;11.80;75.90;;;10.14;82.81;96350.03;4828609;28;20757;-63
2022/05/01 00:57:05;;;;;;;18.45;16.55;;;11.80;75.80;;;10.15;82.76;96350.84;4829711;28;20390;-63
2022/05/01 00:59:32;;;;;;;18.00;16.20;;;11.80;75.90;;;10.14;83.04;96351.84;4840119;28;20371;-63
2022/05/01 01:01:58;;;;;;;19.17;17.27;;;11.70;75.80;;;10.13;81.68;96350.22;4840559;28;20358;-63
2022/05/01 01:04:25;;;;;;;18.95;17.08;;;11.70;76.00;;;10.12;81.65;96356.47;4828443;28;20362;-63
2022/05/01 01:06:51;;;;;;;18.63;16.80;;;11.70;75.80;;;10.11;83.23;96344.31;4815965;28;20359;-63
2022/05/01 01:09:18;;;;;;;19.38;16.77;;;11.60;76.20;;;10.10;83.27;96350.56;4836739;28;20219;-63
2022/05/01 01:11:44;;;;;;;18.30;16.38;;;11.60;76.30;;;10.09;83.19;96348.94;4838556;28;20412;-63
2022/05/01 01:14:11;;;;;;;18.30;16.48;;;11.60;76.30;;;10.10;82.98;96350.56;4817792;28;20363;-63
2022/05/01 01:16:38;;;;;;;19.08;17.08;;;11.60;76.20;;;10.08;83.17;96344.69;4813038;28;20361;-63
2022/05/01 01:19:08;;;;;;;17.92;16.20;;;11.60;76.50;;;10.07;83.88;96345.69;4830883;28;20852;-63
2022/05/01 01:21:35;;;;;;;19.77;17.67;;;11.60;76.60;;;10.06;82.27;96346.69;4822642;28;20457;-64
2022/05/01 01:24:07;;;;;;;18.40;16.70;;;11.60;76.50;;;10.05;83.74;96339.78;4829302;28;20858;-63
2022/05/01 01:26:36;;;;;;;18.52;16.73;;;11.60;76.60;;;10.03;83.61;96341.78;4862865;28;20220;-63
2022/05/01 01:31:40;;;;;;;18.33;16.52;;;11.50;76.90;;;10.00;82.93;96344.78;4849179;28;20351;-64
2022/05/01 01:31:49;;;;;;;19.02;17.17;;;11.50;77.10;;;9.98;83.59;96344.13;4845149;28;20324;-63
2022/05/01 01:34:15;;;;;;;18.15;15.98;;;11.50;77.20;;;9.98;84.33;96339.69;4821838;28;20329;-64
2022/05/01 01:36:42;;;;;;;19.45;17.55;;;11.50;76.90;;;9.96;83.22;96340.88;4824980;28;20327;-64
2022/05/01 01:39:08;;;;;;;18.30;16.52;;;11.60;77.10;;;9.96;83.60;96335.63;4839012;28;20428;-64
2022/05/01 01:41:34;;;;;;;18.45;16.63;;;11.50;77.30;;;9.96;83.54;96346.13;4819063;28;20326;-64
2022/05/01 01:44:00;;;;;;;18.40;16.50;;;11.50;77.40;;;9.93;84.75;96341.22;4815872;28;20379;-64
2022/05/01 01:46:27;;;;;;;18.27;16.42;;;11.50;77.40;;;9.93;83.63;96335.94;4810221;29;20299;-64
2022/05/01 01:48:53;;;;;;;18.67;16.88;;;11.50;77.50;;;9.94;84.50;96342.84;4822410;28;20718;-64
2022/05/01 01:51:19;;;;;;;19.00;17.10;;;11.50;77.30;;;9.94;84.48;96343.66;4811859;29;20342;-63
2022/05/01 01:53:46;;;;;;;18.55;16.75;;;11.50;77.40;;;9.94;84.07;96332.31;4825602;28;20428;-63
2022/05/01 01:56:12;;;;;;;18.55;16.65;;;11.50;77.30;;;9.97;85.00;96342.50;4846890;28;20331;-64
2022/05/01 01:58:39;;;;;;;19.40;17.45;;;11.60;77.30;;;9.97;84.11;96342.50;4846645;28;20504;-63
2022/05/01 02:01:08;;;;;;;17.52;15.77;;;11.60;77.20;;;9.97;85.12;96337.25;4827230;28;20368;-64
2022/05/01 02:03:34;;;;;;;17.52;15.82;;;11.50;77.40;;;9.97;84.07;96337.25;4848452;28;20346;-64
2022/05/01 02:06:00;;;;;;;19.02;17.23;;;11.50;77.50;;;9.97;85.38;96334.63;4820929;28;20555;-64
2022/05/01 02:08:26;;;;;;;18.88;16.98;;;11.60;77.50;;;9.97;84.08;96332.00;4807295;29;20436;-64
2022/05/01 02:10:53;;;;;;;19.45;17.55;;;11.60;77.40;;;9.96;84.15;96338.25;4794107;28;20454;-63
2022/05/01 02:13:19;;;;;;;19.65;17.75;;;11.50;77.30;;;9.93;85.19;96328.06;4846855;28;20337;-62
2022/05/01 02:15:45;;;;;;;19.15;17.15;;;11.50;77.40;;;9.93;84.71;96330.69;4825798;28;20450;-62
2022/05/01 02:18:11;;;;;;;19.88;17.83;;;11.50;77.50;;;9.91;85.22;96332.69;4821996;28;20215;-63
2022/05/01 02:23:24;;;;;;;19.25;17.38;;;11.40;77.90;;;9.90;84.87;96333.69;4830515;28;20423;-63
2022/05/01 02:25:50;;;;;;;20.08;18.08;;;11.50;78.10;;;9.90;85.99;96333.69;4828352;28;20582;-62
2022/05/01 02:28:16;;;;;;;19.85;17.73;;;11.50;78.10;;;9.90;86.29;96336.31;4859186;28;20354;-63
2022/05/01 02:30:42;;;;;;;20.35;18.27;;;11.50;78.00;;;9.87;85.29;96331.41;4843982;28;20352;-63
2022/05/01 02:33:09;;;;;;;22.00;19.75;;;11.40;78.00;;;9.88;86.62;96338.31;4832450;28;20310;-63
2022/05/01 02:35:35;;;;;;;20.48;18.35;;;11.50;78.10;;;9.90;85.29;96331.06;4848176;28;20357;-63
2022/05/01 02:38:02;;;;;;;21.55;19.25;;;11.50;78.10;;;9.90;86.51;96336.31;4856668;28;20539;-63
2022/05/01 02:40:31;;;;;;;20.77;18.67;;;11.50;78.10;;;9.88;85.67;96333.06;4839114;28;20563;-63
2022/05/01 02:42:59;;;;;;;21.10;19.08;;;11.50;78.10;;;9.86;86.77;96325.34;4841053;28;20497;-63
2022/05/01 02:45:28;;;;;;;20.98;18.88;;;11.50;78.20;;;9.83;86.63;96331.78;4844226;28;20344;-63
2022/05/01 02:47:54;;;;;;;21.65;19.48;;;11.40;78.10;;;9.80;86.86;96332.13;4851391;28;20329;-65
2022/05/01 02:50:21;;;;;;;21.58;19.10;;;11.40;78.60;;;9.80;87.07;96326.88;4823772;28;20730;-63
2022/05/01 02:52:47;;;;;;;22.38;20.13;;;11.50;78.60;;;9.80;86.80;96324.25;4824033;28;20330;-63
2022/05/01 02:55:14;;;;;;;21.55;19.35;;;11.40;78.30;;;9.80;86.75;96320.81;4831538;29;20450;-63
2022/05/01 02:57:41;;;;;;;22.35;20.15;;;11.40;78.40;;;9.80;85.97;96326.06;4822369;29;20351;-63
2022/05/01 03:00:16;;;;;;;21.65;19.45;;;11.40;78.60;;;9.82;86.55;96324.06;4807268;28;20543;-63
2022/05/01 03:02:46;;;;;;;21.65;19.40;;;11.40;78.50;;;9.78;87.21;96323.63;4845744;28;20312;-63
2022/05/01 03:05:13;;;;;;;20.95;18.95;;;11.40;78.50;;;9.79;86.94;96325.25;4822609;28;20367;-63
2022/05/01 03:07:39;;;;;;;23.38;20.67;;;11.50;78.60;;;9.79;86.40;96320.00;4827295;28;20385;-63
2022/05/01 03:10:07;;;;;;;21.23;19.08;;;11.40;78.80;;;9.79;86.21;96320.00;4824951;28;20380;-64
2022/05/01 03:12:34;;;;;;;21.95;19.85;;;11.40;78.50;;;9.78;87.12;96318.38;4828939;28;20873;-63
2022/05/01 03:15:00;;;;;;;22.42;20.23;;;11.40;78.80;;;9.80;87.67;96320.81;4830312;28;20215;-63
2022/05/01 03:22:10;;;;;;;21.73;19.50;;;11.40;78.80;;;9.78;87.44;96307.03;4829235;28;20346;-63
2022/05/01 03:22:58;;;;;;;22.52;20.30;;;11.40;79.00;;;9.74;87.63;96306.59;4859667;28;20413;-63
2022/05/01 03:25:24;;;;;;;23.60;21.20;;;11.40;78.90;;;9.75;87.24;96304.78;4844989;28;20437;-63
2022/05/01 03:27:50;;;;;;;22.60;20.35;;;11.40;78.70;;;9.74;88.00;96303.16;4857440;28;20755;-62
2022/05/01 03:30:17;;;;;;;23.50;20.98;;;11.30;78.80;;;9.72;87.68;96308.56;4841849;28;20390;-62
2022/05/01 03:32:43;;;;;;;22.75;20.55;;;11.30;79.30;;;9.74;88.12;96305.78;4877667;28;20349;-63
2022/05/01 03:35:09;;;;;;;23.17;20.88;;;11.40;79.10;;;9.74;88.50;96303.97;4847593;28;20418;-63
2022/05/01 03:37:36;;;;;;;23.33;20.92;;;11.40;79.20;;;9.72;87.68;96300.69;4831404;28;20433;-63
2022/05/01 03:40:03;;;;;;;23.00;20.80;;;11.30;79.30;;;9.70;87.28;96300.03;4844067;28;20502;-63
2022/05/01 03:42:30;;;;;;;23.98;21.42;;;11.30;79.40;;;9.70;87.46;96309.72;4846763;28;20317;-63
2022/05/01 03:44:56;;;;;;;23.48;20.52;;;11.40;79.40;;;9.69;88.46;96324.69;4829815;28;20430;-63
2022/05/01 03:47:22;;;;;;;23.13;20.83;;;11.40;79.50;;;9.70;88.74;96310.53;4853708;28;20487;-64
2022/05/01 03:49:49;;;;;;;24.65;22.10;;;11.40;79.50;;;9.70;87.97;96309.72;4825696;28;20436;-63
2022/05/01 03:52:15;;;;;;;22.65;20.33;;;11.30;79.60;;;9.69;88.82;96306.28;4832603;28;20272;-63
2022/05/01 03:54:41;;;;;;;23.35;20.80;;;11.30;79.70;;;9.69;88.63;96308.91;4830138;28;20722;-63
2022/05/01 03:57:09;;;;;;;23.92;21.55;;;11.30;79.70;;;9.69;89.51;96318.59;4849621;28;20366;-63
2022/05/01 03:59:35;;;;;;;24.55;22.13;;;11.30;79.60;;;9.70;88.44;96307.91;4830024;28;20582;-63
2022/05/01 04:02:01;;;;;;;22.85;20.48;;;11.40;79.70;;;9.71;88.05;96312.19;4832492;28;20383;-63
2022/05/01 04:04:28;;;;;;;24.40;21.77;;;11.40;79.60;;;9.71;89.32;96314.81;4818075;28;20311;-62
2022/05/01 04:06:54;;;;;;;24.02;21.52;;;11.40;79.60;;;9.72;88.96;96315.63;4854457;28;20757;-62
2022/05/01 04:09:23;;;;;;;24.48;21.92;;;11.40;79.50;;;9.72;88.23;96313.81;4844424;28;20745;-62
2022/05/01 04:11:49;;;;;;;25.05;22.50;;;11.40;79.60;;;9.71;88.30;96317.44;4829223;28;20345;-64
2022/05/01 04:14:15;;;;;;;25.98;22.40;;;11.40;79.40;;;9.70;87.80;96315.78;4794612;29;20703;-64
2022/05/01 04:16:41;;;;;;;25.50;22.95;;;11.40;79.30;;;9.70;89.20;96320.22;4831913;28;20512;-64
2022/05/01 04:19:10;;;;;;;24.63;22.02;;;11.30;79.30;;;9.72;87.98;96319.06;4820825;28;20711;-65
2022/05/01 04:21:37;;;;;;;25.05;22.48;;;11.40;79.70;;;9.69;88.01;96314.16;4835829;28;20473;-65
2022/05/01 04:24:03;;;;;;;25.35;22.75;;;11.30;79.60;;;9.72;89.02;96318.25;4842784;28;20640;-64
2022/05/01 04:26:30;;;;;;;26.67;23.80;;;11.30;79.60;;;9.68;89.04;96324.84;4839763;28;20370;-64
2022/05/01 04:31:41;;;;;;;27.75;24.83;;;11.30;79.50;;;9.67;88.57;96321.41;4839852;28;20448;-63
2022/05/01 04:34:07;;;;;;;28.65;25.55;;;11.30;79.30;;;9.67;89.41;96324.03;4835415;28;20417;-63
2022/05/01 04:36:33;;;;;;;33.22;27.73;;;11.30;79.50;;;9.66;88.16;96325.03;4840043;28;20344;-63
2022/05/01 04:38:59;;;;;;;39.70;34.83;;;11.30;79.70;;;9.66;89.48;96325.03;4846127;28;20252;-63
2022/05/01 04:41:26;;;;;;;34.38;30.63;;;11.30;79.80;;;9.67;89.32;96326.66;4840859;28;20203;-63
2022/05/01 04:43:52;;;;;;;31.50;28.20;;;11.30;79.70;;;9.68;88.75;96330.09;4826635;28;20625;-63
2022/05/01 04:46:18;;;;;;;31.67;27.38;;;11.30;79.70;;;9.65;89.22;96323.41;4824948;28;20351;-63
2022/05/01 04:48:45;;;;;;;31.27;27.95;;;11.20;79.80;;;9.61;88.94;96316.88;4812643;29;20498;-62
2022/05/01 04:51:11;;;;;;;34.25;30.55;;;11.20;80.00;;;9.62;90.20;96323.75;4875409;28;20214;-62
2022/05/01 04:53:37;;;;;;;38.40;31.95;;;11.20;80.20;;;9.63;89.38;96320.13;4841624;28;20226;-64
2022/05/01 04:58:49;;;;;;;34.10;30.33;;;11.20;79.90;;;9.64;88.82;96328.84;4821631;28;20387;-64
2022/05/01 05:01:15;;;;;;;31.85;28.08;;;11.20;79.70;;;9.63;88.60;96328.00;4821660;28;20738;-66
2022/05/01 05:03:42;;;;;;;30.90;27.55;;;11.20;79.50;;;9.64;89.54;96329.66;4827201;28;20750;-66
2022/05/01 05:06:08;;;;;;;29.45;26.17;;;11.20;79.50;;;9.64;89.17;96327.03;4842187;28;20457;-64
2022/05/01 05:11:18;;;;;;;29.45;25.95;;;11.30;79.60;;;9.68;89.39;96335.34;4835905;28;20320;-63
2022/05/01 05:13:45;;;;;;;31.13;27.95;;;11.30;79.20;;;9.68;89.23;96336.19;4809706;28;20481;-64
2022/05/01 05:16:14;;;;;;;30.70;27.27;;;11.30;79.20;;;9.67;88.87;96333.72;4846939;28;20603;-64
2022/05/01 05:18:40;;;;;;;30.02;26.90;;;11.30;79.00;;;9.68;88.42;96337.97;4812076;29;20298;-65
2022/05/01 05:21:09;;;;;;;49.38;43.40;;;11.40;79.10;;;9.67;88.50;96337.16;4827167;28;20667;-66
2022/05/01 05:23:35;;;;;;;32.53;28.45;;;11.30;79.30;;;9.67;88.66;96342.41;4816277;28;20401;-66
2022/05/01 05:26:02;;;;;;;29.83;26.70;;;11.30;78.90;;;9.65;87.83;96344.41;4831026;28;20309;-67
2022/05/01 05:28:28;;;;;;;30.60;27.30;;;11.30;79.10;;;9.64;89.13;96339.34;4842831;28;20277;-66
2022/05/01 05:30:54;;;;;;;31.38;27.83;;;11.30;79.10;;;9.64;88.08;96345.41;4837914;28;20367;-66
2022/05/01 05:33:20;;;;;;;31.42;28.20;;;11.30;79.10;;;9.65;89.07;96340.97;4842700;28;20210;-66
2022/05/01 05:35:46;;;;;;;32.03;28.48;;;11.30;79.00;;;9.67;88.08;96349.47;4828916;28;20444;-68
2022/05/01 05:38:12;;;;;;;32.35;27.83;;;11.30;79.20;;;9.66;89.23;96346.03;4831938;28;20397;-66
2022/05/01 05:40:39;;;;;;;30.38;27.20;;;11.30;79.10;;;9.68;88.06;96349.31;4846599;28;20397;-68
2022/05/01 05:43:05;;;;;;;33.10;28.13;;;11.40;78.70;;;9.70;87.71;96357.81;4867644;28;20358;-64
2022/05/01 05:45:31;;;;;;;32.00;28.52;;;11.40;78.60;;;9.70;88.45;96352.56;4834657;28;20215;-65
2022/05/01 05:47:58;;;;;;;33.17;28.35;;;11.50;78.60;;;9.70;88.77;96357.81;4841709;28;20400;-66
2022/05/01 05:50:24;;;;;;;32.67;28.90;;;11.30;78.40;;;9.70;88.44;96355.19;4823642;28;20203;-67
2022/05/01 05:52:50;;;;;;;32.88;29.33;;;11.30;78.70;;;9.70;88.62;96362.25;4834018;28;20336;-67
2022/05/01 05:55:16;;;;;;;36.42;31.50;;;11.40;78.70;;;9.71;87.54;96361.25;4835214;28;20582;-65
2022/05/01 05:57:42;;;;;;;37.83;33.30;;;11.40;78.80;;;9.72;88.35;96361.09;4831377;28;20262;-65
2022/05/01 06:00:09;;;;;;;35.85;31.05;;;11.40;78.80;;;9.71;88.58;96364.72;4839682;28;20333;-66
2022/05/01 06:02:35;;;;;;;31.92;28.63;;;11.30;78.70;;;9.70;88.03;96363.06;4827870;28;20277;-66
2022/05/01 06:05:01;;;;;;;34.00;28.77;;;11.30;78.60;;;9.69;87.92;96360.63;4831676;28;20504;-67
2022/05/01 06:07:28;;;;;;;32.42;28.88;;;11.20;78.90;;;9.66;88.39;96356.56;4817139;29;20498;-66
2022/05/01 06:09:54;;;;;;;34.15;30.30;;;11.30;78.90;;;9.68;88.74;96365.06;4833921;28;20726;-64
2022/05/01 06:12:20;;;;;;;36.95;32.35;;;11.30;78.80;;;9.69;88.10;96365.88;4811887;29;20454;-63
2022/05/01 06:14:46;;;;;;;35.17;31.00;;;11.30;78.90;;;9.69;88.82;96366.69;4833735;28;20470;-65
2022/05/01 06:17:12;;;;;;;37.17;31.02;;;11.30;79.00;;;9.70;88.84;96370.13;4837126;28;20073;-63
2022/05/01 06:19:39;;;;;;;39.35;31.58;;;11.30;78.70;;;9.68;87.32;96365.06;4830623;28;20306;-63
2022/05/01 06:22:06;;;;;;;34.45;29.77;;;11.30;78.90;;;9.68;88.78;96369.50;4830018;28;20906;-63
2022/05/01 06:24:32;;;;;;;32.60;29.13;;;11.30;79.00;;;9.69;88.47;96369.31;4848454;28;20214;-63
2022/05/01 06:26:58;;;;;;;37.38;32.33;;;11.40;78.80;;;9.69;87.92;96376.38;4850996;28;20499;-63
2022/05/01 06:29:25;;;;;;;36.80;31.98;;;11.30;78.70;;;9.70;88.95;96367.50;4803344;28;20721;-63
2022/05/01 06:31:51;;;;;;;42.67;33.22;;;11.40;78.70;;;9.71;88.61;96367.34;4819899;28;20641;-63
2022/05/01 06:34:17;;;;;;;34.63;30.23;;;11.40;78.50;;;9.72;87.98;96371.59;4828699;28;20277;-64
2022/05/01 06:36:44;;;;;;;36.83;32.58;;;11.40;78.70;;;9.72;87.73;96376.84;4813902;29;20413;-63
2022/05/01 06:39:11;;;;;;;36.40;31.50;;;11.40;78.90;;;9.74;88.48;96380.16;4828609;28;20532;-64
2022/05/01 06:41:40;;;;;;;38.65;32.22;;;11.40;78.70;;;9.72;89.13;96379.47;4840245;28;20441;-63
2022/05/01 06:44:07;;;;;;;34.65;30.30;;;11.40;78.50;;;9.74;88.93;96390.66;4834941;28;20359;-63
2022/05/01 06:46:33;;;;;;;38.10;28.30;;;11.50;78.60;;;9.75;88.39;96389.66;4853782;28;20694;-63
2022/05/01 06:48:59;;;;;;;32.55;28.33;;;11.50;78.50;;;9.75;88.68;96394.91;4863783;28;20668;-63
2022/05/01 06:51:25;;;;;;;33.72;29.52;;;11.40;78.30;;;9.75;87.73;96387.03;4841335;28;20209;-63
2022/05/01 06:53:51;;;;;;;34.25;29.85;;;11.40;78.50;;;9.78;87.57;96391.09;4843284;28;20300;-63
2022/05/01 06:56:17;;;;;;;34.50;29.05;;;11.50;78.30;;;9.77;87.55;96387.66;4842211;28;20345;-63
2022/05/01 06:58:44;;;;;;;33.30;29.38;;;11.50;78.10;;;9.78;88.61;96391.94;4854245;28;20345;-63
2022/05/01 07:01:10;;;;;;;35.67;29.77;;;11.50;78.00;;;9.79;87.13;96392.75;4851376;28;20333;-63
2022/05/01 07:03:36;;;;;;;35.55;30.13;;;11.50;78.10;;;9.80;87.67;96389.94;4831567;28;20734;-64
2022/05/01 07:06:03;;;;;;;36.90;31.52;;;11.50;78.50;;;9.78;88.63;96393.75;4800996;28;20489;-64
2022/05/01 07:08:29;;;;;;;35.47;30.45;;;11.40;78.40;;;9.79;87.33;96395.38;4840309;28;20393;-63
2022/05/01 07:10:55;;;;;;;37.92;31.15;;;11.40;78.40;;;9.77;87.93;96390.28;4860006;28;20574;-63
2022/05/01 07:13:22;;;;;;;35.53;30.30;;;11.50;78.60;;;9.80;88.05;96395.19;4840573;28;20327;-63
2022/05/01 07:15:48;;;;;;;36.70;29.77;;;11.50;78.70;;;9.80;87.47;96392.56;4832484;28;20188;-63
2022/05/01 07:18:14;;;;;;;35.97;31.40;;;11.60;78.60;;;9.82;87.84;96398.47;4842814;28;20046;-64
2022/05/01 07:20:40;;;;;;;36.72;29.88;;;11.60;78.70;;;9.85;88.09;96394.66;4832505;28;20406;-64
2022/05/01 07:23:07;;;;;;;35.92;30.25;;;11.60;78.20;;;9.86;87.97;96398.91;4826639;28;20770;-63
2022/05/01 07:25:33;;;;;;;35.83;30.30;;;11.60;78.30;;;9.86;88.92;96398.09;4846392;28;20475;-63
2022/05/01 07:27:59;;;;;;;34.80;30.92;;;11.50;78.60;;;9.83;87.97;96394.84;4845266;28;20792;-64
2022/05/01 07:30:25;;;;;;;37.83;30.02;;;11.60;78.40;;;9.83;88.41;96392.22;4862805;28;20186;-64
2022/05/01 07:32:52;;;;;;;37.15;30.55;;;11.50;78.40;;;9.82;89.26;96393.19;4835866;28;20379;-64
2022/05/01 07:35:18;;;;;;;36.33;31.02;;;11.60;78.40;;;9.83;87.66;96394.00;4848564;28;20708;-64
2022/05/01 07:37:44;;;;;;;37.13;30.80;;;11.50;78.50;;;9.83;88.55;96394.84;4861410;28;20227;-64
2022/05/01 07:40:12;;;;;;;38.10;32.55;;;11.50;78.30;;;9.83;87.68;96389.56;4851942;28;20341;-64
2022/05/01 07:42:38;;;;;;;40.38;32.60;;;11.60;78.50;;;9.83;88.71;96389.56;4809470;29;20421;-64
2022/05/01 07:45:05;;;;;;;38.33;32.45;;;11.50;78.40;;;9.86;89.25;96387.59;4838594;28;20457;-64
2022/05/01 07:47:31;;;;;;;38.97;30.27;;;11.60;78.50;;;9.89;88.07;96387.22;4857432;28;20232;-63
2022/05/01 07:49:57;;;;;;;39.83;32.75;;;11.60;78.50;;;9.89;88.75;96376.72;4861627;28;20621;-63
2022/05/01 07:52:25;;;;;;;36.13;31.23;;;11.50;78.30;;;9.86;88.33;96390.22;4847809;28;20745;-62
2022/05/01 07:54:52;;;;;;;38.22;32.45;;;11.40;78.40;;;9.82;87.34;96387.94;4850973;28;20442;-63
2022/05/01 07:57:18;;;;;;;38.80;30.65;;;11.40;78.50;;;9.82;88.10;96387.13;4850246;28;20342;-63
2022/05/01 07:59:44;;;;;;;38.40;32.60;;;11.40;78.40;;;9.85;88.47;96396.47;4848015;28;20839;-61
2022/05/01 08:02:10;;;;;;;30.10;25.38;;;11.50;78.70;;;9.85;89.13;96391.22;4860230;28;20503;-61
2022/05/01 08:04:37;;;;;;;39.65;31.00;;;11.60;78.80;;;9.86;88.15;96398.09;4851657;28;20342;-64
2022/05/01 08:07:04;;;;;;;41.65;31.13;;;11.60;78.60;;;9.86;88.99;96393.66;4861822;28;20421;-63
2022/05/01 08:09:30;;;;;;;37.95;31.92;;;11.60;78.50;;;9.88;89.24;96396.09;4831600;28;20352;-64
2022/05/01 08:11:57;;;;;;;37.05;33.00;;;11.60;78.20;;;9.91;89.16;96395.75;4880105;28;20326;-63
2022/05/01 08:14:23;;;;;;;39.25;32.50;;;11.60;78.50;;;9.90;87.84;96400.19;4862754;28;20277;-64
2022/05/01 08:16:49;;;;;;;40.67;32.53;;;11.60;78.00;;;9.92;87.92;96394.75;4863219;28;20322;-64
2022/05/01 08:22:01;;;;;;;39.67;33.03;;;11.80;78.10;;;9.97;89.31;96389.81;4861258;28;20367;-67
2022/05/01 08:24:27;;;;;;;41.63;32.47;;;11.80;78.00;;;10.02;88.43;96387.47;4866197;28;20818;-68
2022/05/01 08:26:53;;;;;;;40.38;32.03;;;11.80;77.90;;;10.04;88.24;96388.09;4845543;28;20343;-66
2022/05/01 08:29:20;;;;;;;40.28;32.17;;;11.80;78.00;;;10.07;88.75;96395.63;4875356;28;20312;-66
2022/05/01 08:31:46;;;;;;;41.85;33.40;;;11.80;77.40;;;10.07;87.30;96390.34;4860147;28;20437;-67
2022/05/01 08:34:12;;;;;;;41.83;34.58;;;11.80;77.70;;;10.11;88.06;96381.13;4835290;28;20642;-67
2022/05/01 08:36:39;;;;;;;45.75;32.17;;;12.00;77.40;;;10.14;88.57;96386.00;4865913;28;20432;-65
2022/05/01 08:39:06;;;;;;;39.10;32.92;;;12.00;77.30;;;10.21;88.36;96389.59;4843569;28;20257;-65
2022/05/01 08:41:32;;;;;;;39.38;32.25;;;12.10;77.10;;;10.27;88.30;96391.50;4827862;28;20202;-65
2022/05/01 08:44:00;;;;;;;38.58;33.00;;;12.10;76.60;;;10.34;88.21;96387.16;4800420;28;20379;-66
2022/05/01 08:46:45;;;;;;;39.00;32.65;;;12.30;76.40;;;10.45;87.63;96387.72;4837957;28;20331;-66
2022/05/01 08:49:11;;;;;;;37.92;30.52;;;12.40;75.90;;;10.54;87.89;96391.88;4803963;29;20357;-66
2022/05/01 08:51:41;;;;;;;39.40;33.15;;;12.60;75.80;;;10.63;87.69;96388.97;4827739;28;20260;-66
2022/05/01 08:54:09;;;;;;;39.15;31.45;;;12.60;75.80;;;10.68;85.98;96388.44;4827141;28;20213;-65
2022/05/01 08:56:37;;;;;;;35.97;31.20;;;12.60;75.10;;;10.70;85.71;96391.72;4827055;28;20341;-66
2022/05/01 08:59:09;;;;;;;36.05;30.65;;;12.60;75.20;;;10.75;86.94;96389.34;4810119;28;20321;-65
2022/05/01 09:01:36;;;;;;;36.35;30.88;;;12.60;75.10;;;10.79;85.00;96387.97;4809786;28;20338;-65
2022/05/01 09:04:06;;;;;;;40.67;32.45;;;12.70;74.50;;;10.81;85.29;96390.41;4812067;28;20365;-64
2022/05/01 09:06:35;;;;;;;34.17;30.15;;;12.70;74.50;;;10.86;85.03;96391.50;4839135;28;20349;-64
2022/05/01 09:09:09;;;;;;;36.13;30.08;;;12.90;74.10;;;10.93;84.68;96387.16;4812523;28;20397;-65
2022/05/01 09:14:25;;;;;;;38.08;30.65;;;12.80;73.90;;;10.98;84.08;96387.41;4833144;28;20619;-65
2022/05/01 09:17:13;;;;;;;;;;;12.90;73.70;;;10.98;84.13;96383.97;4842210;28;20298;-66
2022/05/01 09:19:40;;;;;;;35.97;30.15;;;12.90;73.80;;;10.98;84.44;96379.50;4855750;28;20215;-65
2022/05/01 09:22:06;;;;;;;37.72;32.13;;;12.90;74.00;;;11.00;83.47;96387.22;4832069;28;20315;-65
2022/05/01 09:24:33;;;;;;;36.08;30.95;;;12.80;73.80;;;10.95;84.20;96384.34;4807598;29;20647;-65
2022/05/01 09:26:59;;;;;;;35.13;31.33;;;12.60;74.20;;;10.91;83.27;96383.91;4818899;28;20290;-65
2022/05/01 09:29:36;;;;;;;35.95;29.77;;;12.60;74.60;;;10.90;84.01;96382.25;4818488;28;20334;-66
2022/05/01 09:32:04;;;;;;;36.75;30.48;;;12.60;74.30;;;10.88;83.93;96381.63;4813882;28;20328;-66
2022/05/01 09:34:35;;;;;;;35.47;31.13;;;12.50;74.20;;;10.87;83.37;96387.91;4822693;28;20767;-66
2022/05/01 09:37:03;;;;;;;35.08;30.27;;;12.50;74.70;;;10.91;84.41;96383.06;4864787;28;20365;-63
2022/05/01 09:39:32;;;;;;;37.63;31.35;;;12.70;74.70;;;10.98;83.67;96390.03;4832926;28;20510;-63
2022/05/01 09:42:19;;;;;;;35.42;30.77;;;12.90;74.50;;;11.02;83.04;96396.56;4829823;28;20298;-63
2022/05/01 09:45:06;;;;;;;37.25;31.77;;;12.80;73.80;;;11.04;84.23;96389.28;4843711;28;20347;-63
2022/05/01 09:47:40;;;;;;;35.08;30.25;;;12.90;74.10;;;11.10;82.63;96394.84;4833432;28;20426;-63
2022/05/01 09:50:07;;;;;;;33.90;28.88;;;12.90;73.40;;;11.17;83.17;96393.91;4826995;28;20678;-63
2022/05/01 09:52:56;;;;;;;35.10;28.30;;;13.10;73.50;;;11.29;83.26;96391.59;4831349;28;20191;-63
2022/05/01 09:55:23;;;;;;;32.97;28.70;;;13.20;72.90;;;11.37;83.12;96388.06;4838189;28;20717;-63
2022/05/01 09:57:49;;;;;;;39.60;34.85;;;13.40;73.00;;;11.49;83.27;96387.34;4831086;28;20593;-63
2022/05/01 10:00:35;;;;;;;43.05;37.22;;;13.60;72.30;;;11.64;82.56;96387.31;4836056;28;20370;-62
2022/05/01 10:03:31;;;;;;;37.65;32.15;;;13.70;71.80;;;11.76;82.28;96387.59;4828575;28;20673;-63
2022/05/01 10:05:59;;;;;;;37.28;32.15;;;14.00;70.60;;;11.88;81.57;96378.22;4830501;28;20569;-64
2022/05/01 10:08:25;;;;;;;32.38;28.88;;;14.10;70.00;;;12.00;80.89;96384.63;4829389;28;20497;-64
2022/05/01 10:10:58;;;;;;;31.38;26.88;;;14.20;69.60;;;12.10;80.17;96376.38;4832100;28;20487;-64
2022/05/01 10:13:27;;;;;;;31.80;27.52;;;14.40;68.20;;;12.23;79.79;96368.56;4830199;28;20410;-64
2022/05/01 10:15:54;;;;;;;31.85;28.30;;;14.50;68.10;;;12.34;79.14;96369.84;4815270;28;20513;-65
2022/05/01 10:18:21;;;;;;;32.63;27.73;;;14.60;68.00;;;12.43;78.74;96361.59;4819161;28;20314;-65
2022/05/01 10:20:47;;;;;;;27.73;24.42;;;14.70;67.10;;;12.56;78.44;96363.50;4845138;28;20465;-64
2022/05/01 10:23:13;;;;;;;27.52;24.55;;;14.90;66.00;;;12.62;78.06;96362.72;4846525;28;20401;-62
2022/05/01 10:26:09;;;;;;;26.35;23.55;;;14.80;65.70;;;12.66;76.64;96361.31;4869275;28;20401;-63
2022/05/01 10:28:50;;;;;;;29.48;25.00;;;14.80;66.40;;;12.74;76.77;96362.97;4862459;28;20444;-64
2022/05/01 10:35:12;;;;;;;28.75;23.38;;;15.20;66.30;;;12.99;75.61;96347.44;4839310;28;20643;-65
2022/05/01 10:38:06;;;;;;;26.05;23.25;;;15.40;65.10;;;13.15;75.10;96353.22;4874826;28;20728;-65
2022/05/01 10:40:33;;;;;;;24.77;22.05;;;15.80;63.90;;;13.34;75.42;96346.34;4860426;28;20369;-64